Time;durP1;ratioP1;P1;durP2;ratioP2;P2;SDS_P1;SDS_P2;PMS_P1;PMS_P2;Temp;Humidity;BMP_temperature;BMP_pressure;BME280_temperature;BME280_humidity;BME280_pressure;Samples;Min_cycle;Max_cycle;Signal;HPM_P1;HPM_P2
2023/09/20 00:00:13;;;;;;;1.90;1.10;;;17.20;99.80;;;;;;5004650;28;20988;-66
2023/09/20 00:02:41;;;;;;;7.30;1.70;;;17.30;99.70;;;;;;5008464;28;20854;-66
2023/09/20 00:05:14;;;;;;;2.97;1.40;;;17.40;99.60;;;;;;5013853;28;21217;-66
2023/09/20 00:07:41;;;;;;;2.53;1.60;;;17.50;99.50;;;;;;5011974;28;20855;-65
2023/09/20 00:10:14;;;;;;;2.43;1.10;;;17.40;99.40;;;;;;5003085;28;20494;-65
2023/09/20 00:12:42;;;;;;;1.80;1.10;;;17.30;99.60;;;;;;5018152;28;20493;-66
2023/09/20 00:15:09;;;;;;;2.00;1.40;;;17.20;99.90;;;;;;5018014;28;20552;-66
2023/09/20 00:17:37;;;;;;;2.93;1.87;;;17.00;99.90;;;;;;5005855;28;20859;-66
2023/09/20 00:20:12;;;;;;;2.20;1.13;;;17.00;99.90;;;;;;5013115;28;20493;-66
2023/09/20 00:22:41;;;;;;;7.50;1.27;;;17.10;99.90;;;;;;4995012;28;20749;-66
2023/09/20 00:25:11;;;;;;;2.10;1.40;;;17.20;99.90;;;;;;4996889;28;20481;-66
2023/09/20 00:27:39;;;;;;;2.47;1.20;;;17.30;99.90;;;;;;4998094;28;20478;-65
2023/09/20 00:30:09;;;;;;;2.87;1.10;;;17.40;99.80;;;;;;4997663;28;20532;-65
2023/09/20 00:32:40;;;;;;;1.90;1.20;;;17.50;99.60;;;;;;5009944;28;20480;-66
2023/09/20 00:35:10;;;;;;;1.70;1.00;;;17.50;99.50;;;;;;5021204;28;20533;-66
2023/09/20 00:37:38;;;;;;;2.80;1.30;;;17.60;99.40;;;;;;5002694;28;20489;-65
2023/09/20 00:40:13;;;;;;;3.90;1.97;;;17.60;99.60;;;;;;5010963;28;20931;-66
2023/09/20 00:42:41;;;;;;;1.70;0.80;;;17.60;99.40;;;;;;5010427;28;20576;-66
2023/09/20 00:45:09;;;;;;;4.33;1.57;;;17.60;99.30;;;;;;5012930;28;20993;-66
2023/09/20 00:47:40;;;;;;;2.67;1.83;;;17.60;99.50;;;;;;4998095;28;21024;-66
2023/09/20 00:50:10;;;;;;;2.00;1.30;;;17.40;99.60;;;;;;5012468;28;20521;-66
2023/09/20 00:52:39;;;;;;;2.43;1.40;;;17.30;99.80;;;;;;5017234;28;20531;-66
2023/09/20 00:55:07;;;;;;;2.40;1.57;;;17.20;99.90;;;;;;5009927;28;20534;-66
2023/09/20 00:57:34;;;;;;;3.30;1.30;;;17.10;99.90;;;;;;5021674;28;21343;-66
2023/09/20 01:00:20;;;;;;;2.70;1.70;;;17.10;99.90;;;;;;5003870;28;20472;-65
2023/09/20 01:02:49;;;;;;;3.27;1.20;;;17.00;99.90;;;;;;5010388;28;21001;-65
2023/09/20 01:05:21;;;;;;;4.17;1.10;;;17.00;99.90;;;;;;4997461;28;20824;-65
2023/09/20 01:07:49;;;;;;;2.27;1.37;;;17.00;99.90;;;;;;4998404;28;20539;-66
2023/09/20 01:10:16;;;;;;;1.90;1.03;;;16.90;99.90;;;;;;5005801;28;20879;-66
2023/09/20 01:12:44;;;;;;;5.63;1.20;;;16.90;99.90;;;;;;5005443;28;20836;-66
2023/09/20 01:15:12;;;;;;;1.80;1.07;;;16.70;99.90;;;;;;5016880;28;20484;-66
2023/09/20 01:17:45;;;;;;;4.23;1.53;;;16.60;99.90;;;;;;5013816;28;20524;-67
2023/09/20 01:20:13;;;;;;;2.13;1.63;;;16.70;99.90;;;;;;5016296;28;20515;-66
2023/09/20 01:22:42;;;;;;;2.43;1.00;;;16.70;99.90;;;;;;5011377;28;20533;-67
2023/09/20 01:25:11;;;;;;;4.73;1.90;;;16.70;99.90;;;;;;5010363;28;20489;-66
2023/09/20 01:27:40;;;;;;;3.50;1.87;;;16.80;99.90;;;;;;5012258;28;20749;-66
2023/09/20 01:30:08;;;;;;;2.70;1.47;;;16.90;99.90;;;;;;4998883;28;20615;-66
2023/09/20 01:32:36;;;;;;;3.53;1.53;;;17.20;99.90;;;;;;4996530;28;20487;-66
2023/09/20 01:35:04;;;;;;;2.40;1.53;;;17.20;99.90;;;;;;5013066;28;20482;-66
2023/09/20 01:37:31;;;;;;;2.67;1.47;;;17.10;99.90;;;;;;5000458;28;20831;-67
2023/09/20 01:39:59;;;;;;;3.60;1.23;;;17.10;99.90;;;;;;4995169;28;20482;-67
2023/09/20 01:42:26;;;;;;;2.30;1.33;;;17.10;99.90;;;;;;4994559;28;20543;-67
2023/09/20 01:44:53;;;;;;;2.47;1.27;;;17.10;99.90;;;;;;5005558;28;20886;-67
2023/09/20 01:47:19;;;;;;;1.90;1.20;;;17.10;99.90;;;;;;5004123;28;20480;-66
2023/09/20 01:49:49;;;;;;;2.10;1.20;;;17.20;99.90;;;;;;5013164;28;20481;-66
2023/09/20 01:52:15;;;;;;;2.17;1.00;;;17.20;99.90;;;;;;5015351;28;20534;-67
2023/09/20 01:54:42;;;;;;;8.30;1.77;;;17.30;99.90;;;;;;5018081;28;20480;-67
2023/09/20 01:57:10;;;;;;;2.87;1.23;;;17.40;99.90;;;;;;5016583;28;20477;-66
2023/09/20 01:59:37;;;;;;;4.53;1.33;;;17.50;99.90;;;;;;5014281;28;20468;-66
2023/09/20 02:02:07;;;;;;;2.77;1.60;;;17.60;99.90;;;;;;5020370;28;20874;-66
2023/09/20 02:04:33;;;;;;;3.40;1.60;;;17.70;99.90;;;;;;5000146;28;20476;-67
2023/09/20 02:07:00;;;;;;;3.87;1.67;;;17.70;99.90;;;;;;5020481;28;20831;-66
2023/09/20 02:09:27;;;;;;;3.07;2.00;;;17.70;99.90;;;;;;5019867;28;20515;-66
2023/09/20 02:11:54;;;;;;;2.20;1.30;;;17.60;99.90;;;;;;5020466;28;20760;-67
2023/09/20 02:14:22;;;;;;;2.90;1.43;;;17.60;99.90;;;;;;5019627;28;20488;-66
2023/09/20 02:16:50;;;;;;;4.10;1.57;;;17.40;99.90;;;;;;5019768;28;20998;-66
2023/09/20 02:19:19;;;;;;;3.63;1.40;;;17.30;99.90;;;;;;5020407;28;20475;-66
2023/09/20 02:21:46;;;;;;;3.60;1.70;;;17.10;99.90;;;;;;5020384;28;20476;-66
2023/09/20 02:24:14;;;;;;;2.70;1.60;;;17.00;99.90;;;;;;5020879;28;20544;-66
2023/09/20 02:26:42;;;;;;;2.50;1.43;;;16.90;99.90;;;;;;5018831;28;20472;-66
2023/09/20 02:29:10;;;;;;;5.60;1.50;;;16.80;99.90;;;;;;5019388;28;20483;-66
2023/09/20 02:31:38;;;;;;;2.70;1.63;;;16.70;99.90;;;;;;5018959;28;20473;-66
2023/09/20 02:34:05;;;;;;;3.40;1.73;;;16.70;99.90;;;;;;5006610;28;20472;-66
2023/09/20 02:36:32;;;;;;;1.97;1.40;;;16.60;99.90;;;;;;5019873;28;20468;-66
2023/09/20 02:38:59;;;;;;;3.47;1.60;;;16.60;99.90;;;;;;5019941;28;20512;-66
2023/09/20 02:41:25;;;;;;;2.93;1.43;;;16.50;99.90;;;;;;5012814;28;20484;-66
2023/09/20 02:43:52;;;;;;;2.00;1.20;;;16.50;99.90;;;;;;5015962;28;20575;-66
2023/09/20 02:46:20;;;;;;;4.03;1.60;;;16.50;99.90;;;;;;5018690;28;21247;-66
2023/09/20 02:48:49;;;;;;;2.10;1.23;;;16.60;99.90;;;;;;5018561;28;21030;-66
2023/09/20 02:51:17;;;;;;;3.90;2.40;;;16.60;99.90;;;;;;5019415;28;20911;-66
2023/09/20 02:53:44;;;;;;;2.10;1.07;;;16.70;99.90;;;;;;5019043;28;21008;-66
2023/09/20 02:56:12;;;;;;;2.77;1.87;;;16.70;99.90;;;;;;5020046;28;20495;-66
2023/09/20 02:58:38;;;;;;;3.27;1.90;;;16.80;99.90;;;;;;5018578;28;20473;-66
2023/09/20 03:01:08;;;;;;;2.90;1.70;;;17.00;99.90;;;;;;5016217;28;20473;-66
2023/09/20 03:03:36;;;;;;;2.57;1.90;;;17.00;99.90;;;;;;5016520;28;20481;-66
2023/09/20 03:06:10;;;;;;;3.60;1.47;;;17.10;99.90;;;;;;5019060;28;20481;-66
2023/09/20 03:08:41;;;;;;;2.10;1.30;;;17.20;99.90;;;;;;5019985;28;20555;-66
2023/09/20 03:11:09;;;;;;;2.17;1.47;;;17.30;99.90;;;;;;5019161;28;20468;-66
2023/09/20 03:13:36;;;;;;;2.97;1.23;;;17.20;99.90;;;;;;5011711;28;21042;-66
2023/09/20 03:16:04;;;;;;;2.20;1.33;;;17.10;99.90;;;;;;5032276;28;20476;-66
2023/09/20 03:18:33;;;;;;;2.57;1.43;;;17.10;99.90;;;;;;5018980;28;20495;-66
2023/09/20 03:21:05;;;;;;;2.60;1.37;;;17.00;99.90;;;;;;5023296;28;20473;-66
2023/09/20 03:23:33;;;;;;;3.23;1.20;;;16.90;99.90;;;;;;5018924;28;20460;-66
2023/09/20 03:26:01;;;;;;;3.63;2.00;;;16.90;99.90;;;;;;5017429;28;20481;-66
2023/09/20 03:28:28;;;;;;;2.17;1.37;;;16.90;99.90;;;;;;5021369;28;20472;-66
2023/09/20 03:30:56;;;;;;;2.50;1.83;;;16.90;99.90;;;;;;5029100;28;20480;-66
2023/09/20 03:33:23;;;;;;;1.80;1.07;;;17.00;99.90;;;;;;5021160;28;20476;-66
2023/09/20 03:35:49;;;;;;;2.67;1.53;;;17.10;99.90;;;;;;5018388;28;21039;-66
2023/09/20 03:38:16;;;;;;;3.30;2.07;;;17.00;99.90;;;;;;5017396;28;20484;-66
2023/09/20 03:40:44;;;;;;;2.67;1.50;;;16.60;99.90;;;;;;5020658;28;20983;-66
2023/09/20 03:43:11;;;;;;;3.83;1.47;;;16.50;99.90;;;;;;5017728;28;20473;-66
2023/09/20 03:45:38;;;;;;;2.33;1.30;;;16.50;99.90;;;;;;5019200;28;20468;-66
2023/09/20 03:48:05;;;;;;;3.97;1.67;;;16.60;99.90;;;;;;5020264;28;20838;-66
2023/09/20 03:50:32;;;;;;;2.10;1.30;;;16.70;99.90;;;;;;5017835;28;20477;-66
2023/09/20 03:53:00;;;;;;;3.13;1.30;;;16.70;99.90;;;;;;5023910;28;20477;-66
2023/09/20 03:55:27;;;;;;;2.60;1.40;;;16.80;99.90;;;;;;5017257;28;20551;-66
2023/09/20 03:57:56;;;;;;;2.73;1.50;;;16.80;99.90;;;;;;5020053;28;20495;-66
2023/09/20 04:00:28;;;;;;;3.07;1.60;;;16.90;99.90;;;;;;5015789;28;20473;-66
2023/09/20 04:02:55;;;;;;;2.50;1.40;;;16.90;99.90;;;;;;5015662;28;20991;-66
2023/09/20 04:05:22;;;;;;;1.90;1.17;;;16.90;99.90;;;;;;5018039;28;20515;-66
2023/09/20 04:07:50;;;;;;;7.30;1.63;;;16.90;99.90;;;;;;5018644;28;20477;-66
2023/09/20 04:10:18;;;;;;;2.70;1.57;;;16.90;99.90;;;;;;5020158;28;20473;-66
2023/09/20 04:12:46;;;;;;;1.90;1.27;;;17.00;99.90;;;;;;5020693;28;20895;-66
2023/09/20 04:15:15;;;;;;;5.23;2.33;;;17.00;99.80;;;;;;5007972;28;20523;-66
2023/09/20 04:17:41;;;;;;;2.50;1.50;;;17.00;99.80;;;;;;5023744;28;21118;-66
2023/09/20 04:20:09;;;;;;;5.40;1.90;;;16.80;99.90;;;;;;5011496;28;20487;-66
2023/09/20 04:22:37;;;;;;;2.90;1.50;;;16.80;99.90;;;;;;5031484;28;20481;-66
2023/09/20 04:25:05;;;;;;;2.43;1.57;;;16.70;99.90;;;;;;5020604;28;21168;-66
2023/09/20 04:27:32;;;;;;;2.20;1.43;;;16.70;99.90;;;;;;5018405;28;20476;-66
2023/09/20 04:29:59;;;;;;;1.83;1.00;;;16.70;99.90;;;;;;5017849;28;20508;-66
2023/09/20 04:32:28;;;;;;;2.93;1.77;;;16.70;99.90;;;;;;5021607;28;20523;-66
2023/09/20 04:34:56;;;;;;;2.13;1.10;;;16.70;99.90;;;;;;5014904;28;21170;-66
2023/09/20 04:37:25;;;;;;;4.07;1.57;;;16.50;99.90;;;;;;5016886;28;20892;-66
2023/09/20 04:39:52;;;;;;;2.30;1.40;;;16.50;99.90;;;;;;5017021;28;20543;-66
2023/09/20 04:42:19;;;;;;;2.40;1.43;;;16.40;99.90;;;;;;5018892;28;20480;-66
2023/09/20 04:44:46;;;;;;;2.10;1.23;;;16.50;99.90;;;;;;5018461;28;20485;-66
2023/09/20 04:47:14;;;;;;;2.60;1.40;;;16.50;99.90;;;;;;5018328;28;20867;-66
2023/09/20 04:49:42;;;;;;;3.17;1.70;;;16.50;99.90;;;;;;5019198;28;20475;-66
2023/09/20 04:52:10;;;;;;;1.90;1.23;;;16.50;99.90;;;;;;5011877;28;20492;-66
2023/09/20 04:54:38;;;;;;;1.97;1.30;;;16.40;99.90;;;;;;5016450;28;20473;-66
2023/09/20 04:57:05;;;;;;;3.27;1.60;;;16.50;99.90;;;;;;5017949;28;20488;-66
2023/09/20 04:59:32;;;;;;;4.13;2.00;;;16.30;99.90;;;;;;5015088;28;20568;-66
2023/09/20 05:01:59;;;;;;;2.00;1.20;;;16.10;99.90;;;;;;5010839;28;20488;-66
2023/09/20 05:04:26;;;;;;;3.30;1.70;;;16.00;99.90;;;;;;5031318;28;20477;-66
2023/09/20 05:06:54;;;;;;;3.47;1.77;;;15.90;99.90;;;;;;5017153;28;20481;-66
2023/09/20 05:09:21;;;;;;;2.57;1.70;;;15.80;99.90;;;;;;5016747;28;20483;-66
2023/09/20 05:11:49;;;;;;;2.20;1.63;;;15.70;99.90;;;;;;5018702;28;20831;-66
2023/09/20 05:14:16;;;;;;;2.47;1.60;;;15.70;99.90;;;;;;5017704;28;20737;-66
2023/09/20 05:16:42;;;;;;;3.20;1.40;;;15.70;99.90;;;;;;5012746;28;21016;-66
2023/09/20 05:19:09;;;;;;;2.30;1.97;;;15.70;99.90;;;;;;5016387;28;20493;-66
2023/09/20 05:21:37;;;;;;;4.13;2.20;;;15.60;99.90;;;;;;5017221;28;20480;-66
2023/09/20 05:24:05;;;;;;;1.97;1.20;;;15.60;99.90;;;;;;5016800;28;20566;-66
2023/09/20 05:26:32;;;;;;;3.03;1.83;;;15.70;99.90;;;;;;5012945;28;21199;-66
2023/09/20 05:28:59;;;;;;;2.10;1.23;;;15.80;99.90;;;;;;5019424;28;20581;-66
2023/09/20 05:31:28;;;;;;;1.80;1.07;;;15.80;99.90;;;;;;5012593;28;20483;-65
2023/09/20 05:33:56;;;;;;;2.10;1.53;;;15.90;99.90;;;;;;5019208;28;20603;-66
2023/09/20 05:36:26;;;;;;;2.20;1.90;;;15.90;99.90;;;;;;5016730;28;20795;-66
2023/09/20 05:38:53;;;;;;;2.77;1.50;;;16.00;99.90;;;;;;5017213;28;20920;-65
2023/09/20 05:41:21;;;;;;;2.40;1.30;;;16.10;99.90;;;;;;5019851;28;20479;-65
2023/09/20 05:43:48;;;;;;;2.67;1.60;;;16.20;99.90;;;;;;5012572;28;20473;-66
2023/09/20 05:46:16;;;;;;;4.07;1.20;;;16.20;99.90;;;;;;5013062;28;20492;-66
2023/09/20 05:48:44;;;;;;;2.97;1.40;;;16.30;99.90;;;;;;5015784;28;20477;-67
2023/09/20 05:51:14;;;;;;;2.50;1.60;;;16.30;99.90;;;;;;5016801;28;20476;-66
2023/09/20 05:53:42;;;;;;;2.93;2.10;;;16.30;99.90;;;;;;5016451;28;20481;-66
2023/09/20 05:56:11;;;;;;;2.93;1.73;;;16.40;99.90;;;;;;5015369;28;20472;-66
2023/09/20 05:58:40;;;;;;;3.10;1.70;;;16.40;99.90;;;;;;5016819;28;20512;-66
2023/09/20 06:01:09;;;;;;;2.27;1.20;;;16.50;99.90;;;;;;5014154;28;20999;-66
2023/09/20 06:03:36;;;;;;;3.20;1.60;;;16.70;99.90;;;;;;5016231;28;20485;-66
2023/09/20 06:06:04;;;;;;;5.40;1.70;;;16.90;99.90;;;;;;5020971;28;20467;-66
2023/09/20 06:08:31;;;;;;;4.60;1.73;;;17.00;99.90;;;;;;5014215;28;20530;-66
2023/09/20 06:10:58;;;;;;;2.57;1.33;;;17.20;99.90;;;;;;5016214;28;20496;-66
2023/09/20 06:13:24;;;;;;;2.07;1.00;;;17.20;99.90;;;;;;5014923;28;20885;-66
2023/09/20 06:15:52;;;;;;;3.13;1.57;;;17.10;99.90;;;;;;5015852;28;20999;-66
2023/09/20 06:18:19;;;;;;;4.10;1.30;;;17.10;99.90;;;;;;5005011;28;20476;-66
2023/09/20 06:20:50;;;;;;;2.37;1.63;;;17.00;99.90;;;;;;5018783;28;20483;-66
2023/09/20 06:23:18;;;;;;;3.97;1.90;;;17.00;99.90;;;;;;5017313;28;20508;-66
2023/09/20 06:25:46;;;;;;;3.30;1.50;;;17.00;99.90;;;;;;5014833;28;20480;-66
2023/09/20 06:28:14;;;;;;;2.33;1.43;;;17.00;99.90;;;;;;5017249;28;20592;-66
2023/09/20 06:30:41;;;;;;;5.40;1.93;;;17.00;99.90;;;;;;5015163;28;20484;-66
2023/09/20 06:33:09;;;;;;;2.63;1.80;;;17.00;99.90;;;;;;5015429;28;21179;-66
2023/09/20 06:35:40;;;;;;;3.13;1.70;;;17.00;99.90;;;;;;5015974;28;20874;-66
2023/09/20 06:38:07;;;;;;;10.27;1.43;;;17.00;99.90;;;;;;5016304;28;20496;-66
2023/09/20 06:40:38;;;;;;;2.40;1.67;;;17.10;99.90;;;;;;5019769;28;20487;-65
2023/09/20 06:43:07;;;;;;;3.23;2.00;;;17.20;99.90;;;;;;5016155;28;20495;-66
2023/09/20 06:45:34;;;;;;;2.40;1.50;;;17.20;99.90;;;;;;5013687;28;20473;-66
2023/09/20 06:48:02;;;;;;;4.00;2.17;;;17.20;99.90;;;;;;5018409;28;20484;-66
2023/09/20 06:50:30;;;;;;;3.03;1.43;;;17.30;99.90;;;;;;5020319;28;20472;-66
2023/09/20 06:52:57;;;;;;;3.57;2.00;;;17.40;99.90;;;;;;5016185;28;20472;-66
2023/09/20 06:55:25;;;;;;;2.80;1.60;;;17.50;99.90;;;;;;5021473;28;20479;-66
2023/09/20 06:57:52;;;;;;;2.30;1.73;;;17.60;99.90;;;;;;5009343;28;20579;-66
2023/09/20 07:00:20;;;;;;;2.50;1.50;;;17.90;99.90;;;;;;5023528;28;20472;-66
2023/09/20 07:02:48;;;;;;;2.93;1.60;;;18.20;99.90;;;;;;5018561;28;20476;-66
2023/09/20 07:05:17;;;;;;;3.40;1.30;;;18.40;99.90;;;;;;5019269;28;22077;-66
2023/09/20 07:07:47;;;;;;;6.33;1.70;;;18.50;99.90;;;;;;5016977;28;20564;-66
2023/09/20 07:10:15;;;;;;;3.60;1.93;;;19.30;99.90;;;;;;5024768;28;20481;-66
2023/09/20 07:12:42;;;;;;;3.63;1.67;;;19.70;99.40;;;;;;5019105;28;21515;-66
2023/09/20 07:15:14;;;;;;;2.07;1.10;;;19.80;98.60;;;;;;5011557;28;20487;-66
2023/09/20 07:17:43;;;;;;;3.30;1.40;;;19.90;98.30;;;;;;5032031;28;20515;-66
2023/09/20 07:20:17;;;;;;;2.40;1.63;;;20.00;98.10;;;;;;5023602;28;20525;-66
2023/09/20 07:22:46;;;;;;;3.63;1.67;;;20.00;98.20;;;;;;5028418;28;20503;-66
2023/09/20 07:25:19;;;;;;;2.20;1.30;;;20.00;98.40;;;;;;5008022;28;20480;-66
2023/09/20 07:27:46;;;;;;;2.13;1.07;;;19.80;98.10;;;;;;5030709;28;20520;-66
2023/09/20 07:30:17;;;;;;;3.67;2.10;;;19.60;98.20;;;;;;5009872;28;20489;-67
2023/09/20 07:32:44;;;;;;;1.90;1.40;;;19.40;98.10;;;;;;5027672;28;20473;-66
2023/09/20 07:35:19;;;;;;;4.27;2.20;;;19.30;98.50;;;;;;5018188;28;20485;-66
2023/09/20 07:37:48;;;;;;;2.67;1.70;;;19.20;98.80;;;;;;5016528;28;20476;-66
2023/09/20 07:40:15;;;;;;;2.00;1.63;;;19.20;99.20;;;;;;5019074;28;20835;-66
2023/09/20 07:42:42;;;;;;;2.67;1.80;;;19.20;99.20;;;;;;5018366;28;20480;-66
2023/09/20 07:45:13;;;;;;;5.40;1.50;;;19.20;99.10;;;;;;5019641;28;20515;-66
2023/09/20 07:47:43;;;;;;;2.57;1.90;;;19.30;99.40;;;;;;5017388;28;21121;-66
2023/09/20 07:50:11;;;;;;;2.97;1.90;;;19.30;99.40;;;;;;5019393;28;20496;-66
2023/09/20 07:52:38;;;;;;;2.97;1.77;;;19.40;99.20;;;;;;5015255;28;20494;-66
2023/09/20 07:55:08;;;;;;;3.83;1.50;;;19.40;99.70;;;;;;5015157;28;20534;-67
2023/09/20 07:57:35;;;;;;;3.70;1.27;;;19.30;99.00;;;;;;5016406;28;21031;-66
2023/09/20 08:00:09;;;;;;;12.03;1.60;;;19.30;99.20;;;;;;5018167;28;20512;-67
2023/09/20 08:02:37;;;;;;;2.50;1.57;;;19.30;99.50;;;;;;5017179;28;20458;-66
2023/09/20 08:05:04;;;;;;;2.23;1.73;;;19.20;98.90;;;;;;5018777;28;20489;-67
2023/09/20 08:07:30;;;;;;;3.10;1.57;;;19.10;99.10;;;;;;5016331;28;20913;-66
2023/09/20 08:09:57;;;;;;;2.93;2.00;;;19.10;99.00;;;;;;5010157;28;20464;-67
2023/09/20 08:12:26;;;;;;;3.30;1.73;;;19.20;99.00;;;;;;5021310;28;20472;-66
2023/09/20 08:14:52;;;;;;;3.90;1.80;;;19.30;99.10;;;;;;5017899;28;20487;-67
2023/09/20 08:20:07;;;;;;;8.10;1.57;;;19.40;98.30;;;;;;5004185;28;20559;-66
2023/09/20 09:01:12;;;;;;;2.73;1.40;;;21.50;98.10;;;;;;5003124;28;20765;-68
2023/09/20 09:03:41;;;;;;;2.63;1.70;;;21.30;97.40;;;;;;5014578;28;21186;-67
2023/09/20 09:06:08;;;;;;;2.10;1.23;;;21.30;97.60;;;;;;5016922;28;20451;-67
2023/09/20 09:08:35;;;;;;;3.87;1.80;;;21.20;97.80;;;;;;5016802;28;20750;-67
2023/09/20 09:11:02;;;;;;;2.30;1.80;;;21.40;98.10;;;;;;5019612;28;20480;-67
2023/09/20 09:13:29;;;;;;;2.60;1.37;;;21.50;98.30;;;;;;5018411;28;20483;-68
2023/09/20 09:15:56;;;;;;;2.43;1.47;;;21.50;97.50;;;;;;5017759;28;21003;-66
2023/09/20 09:18:24;;;;;;;2.63;1.80;;;21.50;98.00;;;;;;5015624;28;20995;-68
2023/09/20 09:20:52;;;;;;;4.50;1.50;;;21.60;98.10;;;;;;5016602;28;20463;-68
2023/09/20 09:23:32;;;;;;;2.47;1.63;;;21.50;98.40;;;;;;5010326;28;20817;-68
2023/09/20 09:25:59;;;;;;;4.43;1.37;;;21.60;97.30;;;;;;5019528;28;20841;-68
2023/09/20 09:28:26;;;;;;;2.33;1.30;;;21.70;97.30;;;;;;5015974;28;20796;-67
2023/09/20 09:30:54;;;;;;;4.03;1.27;;;21.80;97.80;;;;;;5017313;28;20577;-67
2023/09/20 09:33:23;;;;;;;2.10;1.27;;;21.80;97.20;;;;;;5023735;28;20483;-67
2023/09/20 09:35:51;;;;;;;4.33;1.43;;;22.10;97.80;;;;;;5016801;28;20477;-66
2023/09/20 09:38:20;;;;;;;2.60;1.30;;;22.40;98.30;;;;;;5016983;28;20964;-66
2023/09/20 09:40:55;;;;;;;2.50;1.20;;;22.60;97.50;;;;;;5019818;28;20465;-66
2023/09/20 09:43:23;;;;;;;1.93;1.20;;;23.00;97.20;;;;;;5016765;28;20487;-66
2023/09/20 09:45:50;;;;;;;2.57;1.30;;;23.30;96.90;;;;;;5018102;28;20488;-66
2023/09/20 09:48:17;;;;;;;2.00;1.37;;;23.40;96.60;;;;;;5018942;28;20481;-67
2023/09/20 09:50:46;;;;;;;2.10;1.13;;;23.60;95.80;;;;;;5017098;28;20507;-68
2023/09/20 09:53:16;;;;;;;2.77;1.13;;;23.70;95.30;;;;;;5015786;28;20476;-66
2023/09/20 09:55:43;;;;;;;5.40;1.37;;;23.90;95.70;;;;;;5015248;28;20476;-67
2023/09/20 09:58:09;;;;;;;2.10;1.40;;;24.00;96.10;;;;;;5013761;28;20451;-67
2023/09/20 10:00:40;;;;;;;3.07;1.67;;;24.00;95.70;;;;;;5017800;28;20476;-68
2023/09/20 10:03:18;;;;;;;1.90;1.10;;;23.90;94.30;;;;;;5000460;28;20554;-68
2023/09/20 10:05:47;;;;;;;6.43;1.30;;;23.80;94.90;;;;;;4994249;28;20519;-68
2023/09/20 10:08:21;;;;;;;2.10;1.30;;;23.90;94.60;;;;;;5016832;28;20928;-68
2023/09/20 10:10:49;;;;;;;3.50;1.60;;;24.00;94.60;;;;;;5013671;28;20497;-68
2023/09/20 10:13:16;;;;;;;2.40;1.30;;;24.00;94.60;;;;;;5006252;28;20995;-67
2023/09/20 10:15:44;;;;;;;1.90;0.97;;;24.00;93.40;;;;;;5009530;28;20694;-69
2023/09/20 10:18:12;;;;;;;1.80;1.10;;;24.10;93.50;;;;;;5010796;28;20507;-68
2023/09/20 10:20:59;;;;;;;3.73;1.33;;;24.00;92.90;;;;;;5016762;28;20916;-66
2023/09/20 10:23:27;;;;;;;1.97;0.97;;;23.80;92.90;;;;;;4993108;28;20471;-68
2023/09/20 10:26:00;;;;;;;2.20;1.37;;;23.70;91.90;;;;;;5023960;28;20481;-68
2023/09/20 10:28:32;;;;;;;4.23;1.40;;;23.50;92.70;;;;;;5013351;28;20999;-69
2023/09/20 10:31:03;;;;;;;3.70;1.40;;;23.60;92.60;;;;;;5005094;28;20833;-68
2023/09/20 10:33:45;;;;;;;1.97;0.97;;;23.70;92.80;;;;;;5019613;28;20511;-69
2023/09/20 10:36:14;;;;;;;8.90;1.97;;;23.60;92.30;;;;;;5007538;28;21106;-68
2023/09/20 10:38:44;;;;;;;3.30;1.43;;;23.60;93.40;;;;;;5018168;28;20535;-69
2023/09/20 10:41:12;;;;;;;3.40;1.47;;;23.60;92.20;;;;;;5010277;28;20552;-69
2023/09/20 10:43:48;;;;;;;3.03;1.70;;;23.60;92.60;;;;;;5005050;28;21040;-67
2023/09/20 10:46:17;;;;;;;2.40;1.20;;;23.80;92.70;;;;;;5008303;28;20447;-68
2023/09/20 10:48:49;;;;;;;3.60;1.73;;;24.10;93.80;;;;;;5006946;28;20542;-69
2023/09/20 10:51:43;;;;;;;1.90;1.20;;;24.30;93.00;;;;;;4988412;28;20441;-68
2023/09/20 10:54:23;;;;;;;2.30;1.10;;;24.40;91.20;;;;;;5016024;28;20552;-68
2023/09/20 10:57:02;;;;;;;2.57;1.10;;;24.40;91.70;;;;;;4998445;28;21269;-70
2023/09/20 10:59:31;;;;;;;1.90;1.00;;;24.30;91.30;;;;;;5007123;28;20455;-70
2023/09/20 11:02:02;;;;;;;2.33;1.30;;;24.10;91.60;;;;;;5014287;28;20481;-70
2023/09/20 11:04:29;;;;;;;3.70;1.27;;;24.10;92.00;;;;;;5014064;28;20484;-71
2023/09/20 11:06:59;;;;;;;2.27;1.20;;;24.00;91.70;;;;;;5011555;28;20467;-67
2023/09/20 11:09:31;;;;;;;2.10;0.97;;;23.90;90.80;;;;;;5015683;28;20535;-68
2023/09/20 11:12:06;;;;;;;2.67;1.10;;;24.10;92.70;;;;;;5021197;28;20467;-68
2023/09/20 11:14:38;;;;;;;6.47;1.80;;;24.10;90.90;;;;;;5012053;28;20998;-67
2023/09/20 11:17:05;;;;;;;1.73;0.87;;;24.30;91.60;;;;;;5024704;28;20979;-68
2023/09/20 11:19:33;;;;;;;3.80;1.60;;;24.20;91.40;;;;;;5009196;28;20483;-68
2023/09/20 11:22:01;;;;;;;4.20;1.33;;;24.20;91.50;;;;;;5014764;28;20487;-67
2023/09/20 11:24:30;;;;;;;2.93;1.20;;;24.50;92.00;;;;;;5017556;28;20482;-68
2023/09/20 11:26:57;;;;;;;2.40;1.47;;;24.80;92.10;;;;;;5005760;28;20471;-68
2023/09/20 11:29:25;;;;;;;2.40;1.37;;;24.70;91.60;;;;;;5019038;28;20509;-69
2023/09/20 11:31:56;;;;;;;2.20;1.20;;;24.70;91.10;;;;;;5009443;28;20936;-70
2023/09/20 11:34:24;;;;;;;3.80;1.30;;;24.80;91.20;;;;;;5015039;28;20913;-68
2023/09/20 11:36:53;;;;;;;2.00;1.17;;;25.00;90.30;;;;;;5019393;28;20455;-67
2023/09/20 11:39:29;;;;;;;2.00;1.03;;;24.80;91.10;;;;;;5007492;28;20465;-68
2023/09/20 11:42:01;;;;;;;2.57;1.30;;;24.90;91.80;;;;;;5003667;28;20488;-67
2023/09/20 11:44:28;;;;;;;2.63;1.70;;;24.80;90.20;;;;;;5018223;28;20451;-69
2023/09/20 11:46:57;;;;;;;3.50;1.10;;;25.10;91.70;;;;;;5018663;28;20780;-66
2023/09/20 11:49:24;;;;;;;3.53;2.17;;;25.10;88.90;;;;;;5016789;28;20539;-69
2023/09/20 11:51:51;;;;;;;2.10;1.10;;;24.90;89.20;;;;;;5013286;28;20472;-69
2023/09/20 11:54:18;;;;;;;2.10;1.10;;;25.10;90.70;;;;;;5014758;28;20477;-68
2023/09/20 11:56:49;;;;;;;5.00;1.73;;;25.20;90.10;;;;;;5013498;28;20456;-70
2023/09/20 11:59:18;;;;;;;1.80;1.00;;;25.10;90.10;;;;;;5017554;28;20455;-67
2023/09/20 12:01:46;;;;;;;6.80;1.20;;;25.30;90.30;;;;;;5011721;28;20785;-68
2023/09/20 12:04:13;;;;;;;2.27;1.60;;;25.30;88.80;;;;;;5018227;28;20504;-68
2023/09/20 12:06:40;;;;;;;3.07;1.70;;;25.20;88.10;;;;;;5016615;28;20479;-69
2023/09/20 12:09:07;;;;;;;3.00;1.70;;;25.20;89.60;;;;;;5007370;28;21015;-68
2023/09/20 12:11:35;;;;;;;3.13;1.50;;;25.20;89.30;;;;;;4992610;28;20448;-68
2023/09/20 12:14:03;;;;;;;2.70;1.47;;;25.50;89.60;;;;;;5028947;28;20478;-68
2023/09/20 12:16:30;;;;;;;3.30;1.80;;;25.50;88.70;;;;;;5006656;28;20489;-69
2023/09/20 12:18:58;;;;;;;2.73;1.47;;;25.70;89.20;;;;;;5005968;28;21021;-68
2023/09/20 12:21:27;;;;;;;2.60;1.37;;;25.90;90.90;;;;;;4993004;28;20855;-68
2023/09/20 12:23:55;;;;;;;2.47;1.20;;;26.00;90.20;;;;;;4990523;28;20586;-67
2023/09/20 12:26:24;;;;;;;2.10;1.20;;;26.30;89.50;;;;;;4993867;28;20452;-67
2023/09/20 12:28:52;;;;;;;3.63;1.60;;;26.20;90.20;;;;;;4979786;28;20984;-68
2023/09/20 12:31:23;;;;;;;2.30;1.20;;;26.00;88.60;;;;;;4993046;28;20543;-68
2023/09/20 12:33:50;;;;;;;6.60;1.97;;;26.00;89.40;;;;;;4998662;28;20456;-68
2023/09/20 12:36:17;;;;;;;2.43;1.47;;;26.00;88.70;;;;;;4998952;28;20745;-68
2023/09/20 12:38:44;;;;;;;3.73;2.17;;;25.90;88.00;;;;;;4997856;28;20489;-66
2023/09/20 12:41:11;;;;;;;2.13;1.43;;;25.90;86.80;;;;;;5001734;28;20824;-67
2023/09/20 12:43:38;;;;;;;2.10;1.40;;;25.90;88.90;;;;;;5000182;28;20486;-68
2023/09/20 12:46:06;;;;;;;4.17;1.73;;;25.70;86.10;;;;;;4995391;28;20587;-67
2023/09/20 12:48:36;;;;;;;2.50;1.23;;;25.70;87.60;;;;;;4987460;28;20448;-66
2023/09/20 12:51:04;;;;;;;3.57;1.50;;;25.60;86.80;;;;;;4999567;28;20946;-68
2023/09/20 12:53:32;;;;;;;1.80;1.17;;;25.50;84.60;;;;;;5000336;28;20474;-69
2023/09/20 12:55:59;;;;;;;2.00;1.33;;;25.70;85.70;;;;;;5001459;28;20999;-68
2023/09/20 12:58:26;;;;;;;2.53;1.30;;;25.60;86.40;;;;;;5000905;28;20480;-68
2023/09/20 13:00:53;;;;;;;2.20;1.80;;;25.80;85.70;;;;;;4995350;28;20851;-69
2023/09/20 13:03:20;;;;;;;2.57;1.23;;;25.70;84.70;;;;;;5004331;28;20835;-68
2023/09/20 13:05:49;;;;;;;2.40;1.20;;;26.00;86.60;;;;;;4995677;28;21044;-69
2023/09/20 13:08:16;;;;;;;2.40;1.50;;;26.10;85.80;;;;;;5001531;28;20459;-68
2023/09/20 13:10:43;;;;;;;2.93;1.40;;;26.20;85.30;;;;;;4998299;28;20568;-68
2023/09/20 13:13:10;;;;;;;3.40;1.20;;;26.30;85.30;;;;;;4997375;28;20482;-69
2023/09/20 13:15:39;;;;;;;3.73;2.30;;;26.40;85.50;;;;;;4995726;28;20983;-68
2023/09/20 13:18:06;;;;;;;3.17;1.60;;;26.70;86.30;;;;;;4977563;28;20485;-67
2023/09/20 13:20:35;;;;;;;3.70;2.17;;;26.70;84.50;;;;;;4977234;28;20481;-70
2023/09/20 13:23:03;;;;;;;4.93;1.77;;;26.40;84.30;;;;;;4985520;28;20464;-69
2023/09/20 13:25:31;;;;;;;3.60;2.03;;;26.40;84.20;;;;;;4991354;28;20462;-68
2023/09/20 13:27:59;;;;;;;2.80;1.53;;;26.20;84.70;;;;;;4999029;28;20939;-70
2023/09/20 13:30:26;;;;;;;1.93;1.20;;;26.50;84.50;;;;;;4998698;28;20948;-67
2023/09/20 13:32:53;;;;;;;3.57;1.60;;;26.40;84.50;;;;;;4997675;28;20488;-69
2023/09/20 13:35:21;;;;;;;2.20;1.30;;;26.20;85.50;;;;;;4996975;28;20494;-68